sensor_id;sensor_type;location;lat;lon;timestamp;P1;durP1;ratioP1;P2;durP2;ratioP2
57291;SDS011;43144;50.972;18.220;2022-12-13T00:00:52;17.80;;;16.00;;
57291;SDS011;43144;50.972;18.220;2022-12-13T00:18:01;15.80;;;14.60;;
57291;SDS011;43144;50.972;18.220;2022-12-13T00:27:50;15.70;;;14.50;;
57291;SDS011;43144;50.972;18.220;2022-12-13T00:45:01;13.10;;;12.10;;
57291;SDS011;43144;50.972;18.220;2022-12-13T00:54:52;13.80;;;12.80;;
57291;SDS011;43144;50.972;18.220;2022-12-13T01:04:41;13.90;;;12.60;;
57291;SDS011;43144;50.972;18.220;2022-12-13T01:14:33;13.60;;;12.40;;
57291;SDS011;43144;50.972;18.220;2022-12-13T01:31:43;18.30;;;16.60;;
57291;SDS011;43144;50.972;18.220;2022-12-13T01:41:33;15.30;;;14.00;;
57291;SDS011;43144;50.972;18.220;2022-12-13T01:51:26;16.40;;;15.00;;
57291;SDS011;43144;50.972;18.220;2022-12-13T02:01:19;16.70;;;15.30;;
57291;SDS011;43144;50.972;18.220;2022-12-13T02:11:10;18.20;;;16.60;;
57291;SDS011;43144;50.972;18.220;2022-12-13T02:29:13;18.70;;;17.00;;
57291;SDS011;43144;50.972;18.220;2022-12-13T02:39:31;17.80;;;16.00;;
57291;SDS011;43144;50.972;18.220;2022-12-13T02:49:24;19.40;;;17.50;;
57291;SDS011;43144;50.972;18.220;2022-12-13T02:59:26;17.40;;;15.90;;
57291;SDS011;43144;50.972;18.220;2022-12-13T03:09:30;20.30;;;18.50;;
57291;SDS011;43144;50.972;18.220;2022-12-13T03:19:37;18.70;;;15.60;;
57291;SDS011;43144;50.972;18.220;2022-12-13T03:29:25;21.20;;;19.00;;
57291;SDS011;43144;50.972;18.220;2022-12-13T03:39:14;22.70;;;20.20;;
57291;SDS011;43144;50.972;18.220;2022-12-13T03:49:02;19.10;;;17.40;;
57291;SDS011;43144;50.972;18.220;2022-12-13T03:58:52;18.80;;;17.20;;
57291;SDS011;43144;50.972;18.220;2022-12-13T04:08:41;8.80;;;8.20;;
57291;SDS011;43144;50.972;18.220;2022-12-13T04:18:30;18.30;;;16.30;;
57291;SDS011;43144;50.972;18.220;2022-12-13T04:28:19;31.20;;;24.10;;
57291;SDS011;43144;50.972;18.220;2022-12-13T04:38:08;17.70;;;16.10;;
57291;SDS011;43144;50.972;18.220;2022-12-13T04:47:56;17.90;;;16.30;;
57291;SDS011;43144;50.972;18.220;2022-12-13T04:57:45;24.10;;;21.10;;
57291;SDS011;43144;50.972;18.220;2022-12-13T05:07:36;13.80;;;12.40;;
57291;SDS011;43144;50.972;18.220;2022-12-13T05:17:26;11.10;;;10.20;;
57291;SDS011;43144;50.972;18.220;2022-12-13T05:34:36;22.10;;;15.20;;
57291;SDS011;43144;50.972;18.220;2022-12-13T05:44:24;26.40;;;16.00;;
57291;SDS011;43144;50.972;18.220;2022-12-13T06:01:34;35.50;;;15.90;;
57291;SDS011;43144;50.972;18.220;2022-12-13T06:11:22;15.90;;;14.20;;
57291;SDS011;43144;50.972;18.220;2022-12-13T06:21:11;46.20;;;28.70;;
57291;SDS011;43144;50.972;18.220;2022-12-13T06:31:00;21.90;;;15.60;;
57291;SDS011;43144;50.972;18.220;2022-12-13T06:40:50;24.50;;;17.50;;
57291;SDS011;43144;50.972;18.220;2022-12-13T06:50:39;217.20;;;100.10;;
57291;SDS011;43144;50.972;18.220;2022-12-13T07:00:29;76.30;;;38.20;;
57291;SDS011;43144;50.972;18.220;2022-12-13T07:17:39;43.20;;;28.00;;
57291;SDS011;43144;50.972;18.220;2022-12-13T07:27:29;226.60;;;67.80;;
57291;SDS011;43144;50.972;18.220;2022-12-13T07:37:17;116.20;;;53.50;;
57291;SDS011;43144;50.972;18.220;2022-12-13T07:47:06;115.00;;;44.20;;
57291;SDS011;43144;50.972;18.220;2022-12-13T07:56:55;87.50;;;38.10;;
57291;SDS011;43144;50.972;18.220;2022-12-13T08:06:44;37.30;;;23.80;;
57291;SDS011;43144;50.972;18.220;2022-12-13T08:16:33;293.00;;;101.60;;
57291;SDS011;43144;50.972;18.220;2022-12-13T08:26:22;38.20;;;25.90;;
57291;SDS011;43144;50.972;18.220;2022-12-13T08:36:12;41.80;;;26.10;;
57291;SDS011;43144;50.972;18.220;2022-12-13T08:46:05;26.50;;;18.70;;
57291;SDS011;43144;50.972;18.220;2022-12-13T08:55:54;22.90;;;17.40;;
57291;SDS011;43144;50.972;18.220;2022-12-13T09:05:47;25.60;;;17.30;;
57291;SDS011;43144;50.972;18.220;2022-12-13T09:15:37;21.60;;;12.80;;
57291;SDS011;43144;50.972;18.220;2022-12-13T09:25:27;68.80;;;36.20;;
57291;SDS011;43144;50.972;18.220;2022-12-13T09:42:41;10.20;;;9.50;;
57291;SDS011;43144;50.972;18.220;2022-12-13T09:52:36;73.70;;;43.30;;
57291;SDS011;43144;50.972;18.220;2022-12-13T10:02:40;33.50;;;18.80;;
57291;SDS011;43144;50.972;18.220;2022-12-13T10:12:36;23.20;;;19.30;;
57291;SDS011;43144;50.972;18.220;2022-12-13T10:29:58;10.90;;;9.80;;
57291;SDS011;43144;50.972;18.220;2022-12-13T10:39:54;22.60;;;19.70;;
57291;SDS011;43144;50.972;18.220;2022-12-13T10:49:52;46.60;;;29.10;;
57291;SDS011;43144;50.972;18.220;2022-12-13T10:59:45;18.00;;;16.10;;
57291;SDS011;43144;50.972;18.220;2022-12-13T11:09:49;15.70;;;13.70;;
57291;SDS011;43144;50.972;18.220;2022-12-13T11:19:46;24.90;;;20.90;;
57291;SDS011;43144;50.972;18.220;2022-12-13T11:29:53;10.80;;;9.70;;
57291;SDS011;43144;50.972;18.220;2022-12-13T11:39:56;22.00;;;16.70;;
57291;SDS011;43144;50.972;18.220;2022-12-13T11:44:59;20.30;;;18.10;;
57291;SDS011;43144;50.972;18.220;2022-12-13T11:54:53;77.80;;;26.50;;
57291;SDS011;43144;50.972;18.220;2022-12-13T12:04:55;16.60;;;13.50;;
57291;SDS011;43144;50.972;18.220;2022-12-13T12:14:50;28.10;;;17.80;;
57291;SDS011;43144;50.972;18.220;2022-12-13T12:32:19;33.80;;;20.10;;
57291;SDS011;43144;50.972;18.220;2022-12-13T12:42:28;37.50;;;24.50;;
57291;SDS011;43144;50.972;18.220;2022-12-13T12:52:40;55.80;;;32.50;;
57291;SDS011;43144;50.972;18.220;2022-12-13T13:02:40;76.30;;;35.20;;
57291;SDS011;43144;50.972;18.220;2022-12-13T13:12:36;36.50;;;19.30;;
57291;SDS011;43144;50.972;18.220;2022-12-13T13:22:43;135.50;;;44.90;;
57291;SDS011;43144;50.972;18.220;2022-12-13T13:32:45;43.80;;;27.00;;
57291;SDS011;43144;50.972;18.220;2022-12-13T13:43:05;43.20;;;25.80;;
57291;SDS011;43144;50.972;18.220;2022-12-13T14:24:11;63.20;;;38.50;;
57291;SDS011;43144;50.972;18.220;2022-12-13T14:29:15;70.90;;;48.90;;
57291;SDS011;43144;50.972;18.220;2022-12-13T14:39:15;83.10;;;49.80;;
57291;SDS011;43144;50.972;18.220;2022-12-13T14:49:16;142.30;;;81.40;;
57291;SDS011;43144;50.972;18.220;2022-12-13T15:28:52;72.40;;;46.70;;
57291;SDS011;43144;50.972;18.220;2022-12-13T15:38:44;115.30;;;77.00;;
57291;SDS011;43144;50.972;18.220;2022-12-13T15:48:39;84.70;;;57.90;;
57291;SDS011;43144;50.972;18.220;2022-12-13T16:06:18;148.70;;;93.70;;
57291;SDS011;43144;50.972;18.220;2022-12-13T16:16:20;137.60;;;80.30;;
57291;SDS011;43144;50.972;18.220;2022-12-13T16:26:14;99.80;;;63.40;;
57291;SDS011;43144;50.972;18.220;2022-12-13T16:36:09;162.70;;;102.90;;
57291;SDS011;43144;50.972;18.220;2022-12-13T16:45:59;366.10;;;223.70;;
57291;SDS011;43144;50.972;18.220;2022-12-13T17:03:11;183.50;;;107.70;;
57291;SDS011;43144;50.972;18.220;2022-12-13T17:13:01;292.00;;;165.00;;
57291;SDS011;43144;50.972;18.220;2022-12-13T17:30:12;240.80;;;126.40;;
57291;SDS011;43144;50.972;18.220;2022-12-13T17:40:04;143.60;;;80.80;;
57291;SDS011;43144;50.972;18.220;2022-12-13T17:49:54;193.00;;;110.30;;
57291;SDS011;43144;50.972;18.220;2022-12-13T17:59:42;177.60;;;92.50;;
57291;SDS011;43144;50.972;18.220;2022-12-13T18:09:31;160.60;;;87.50;;
57291;SDS011;43144;50.972;18.220;2022-12-13T18:19:20;147.10;;;73.60;;
57291;SDS011;43144;50.972;18.220;2022-12-13T18:29:08;130.30;;;69.90;;
57291;SDS011;43144;50.972;18.220;2022-12-13T18:46:21;272.80;;;159.30;;
57291;SDS011;43144;50.972;18.220;2022-12-13T19:03:35;118.40;;;63.90;;
57291;SDS011;43144;50.972;18.220;2022-12-13T19:13:26;126.80;;;68.90;;
57291;SDS011;43144;50.972;18.220;2022-12-13T19:23:18;147.30;;;68.10;;
57291;SDS011;43144;50.972;18.220;2022-12-13T19:33:11;189.90;;;96.60;;
57291;SDS011;43144;50.972;18.220;2022-12-13T19:43:00;222.50;;;100.30;;
57291;SDS011;43144;50.972;18.220;2022-12-13T19:52:49;200.20;;;95.80;;
57291;SDS011;43144;50.972;18.220;2022-12-13T20:02:39;163.50;;;72.00;;
57291;SDS011;43144;50.972;18.220;2022-12-13T20:12:29;149.60;;;76.70;;
57291;SDS011;43144;50.972;18.220;2022-12-13T20:22:18;141.80;;;70.70;;
57291;SDS011;43144;50.972;18.220;2022-12-13T20:32:06;189.30;;;92.10;;
57291;SDS011;43144;50.972;18.220;2022-12-13T20:49:15;131.80;;;66.30;;
57291;SDS011;43144;50.972;18.220;2022-12-13T20:59:09;130.40;;;68.40;;
57291;SDS011;43144;50.972;18.220;2022-12-13T21:08:59;143.30;;;64.00;;
57291;SDS011;43144;50.972;18.220;2022-12-13T21:18:52;106.40;;;58.80;;
57291;SDS011;43144;50.972;18.220;2022-12-13T21:28:41;120.40;;;63.90;;
57291;SDS011;43144;50.972;18.220;2022-12-13T21:38:39;100.80;;;54.50;;
57291;SDS011;43144;50.972;18.220;2022-12-13T21:48:28;59.20;;;37.50;;
57291;SDS011;43144;50.972;18.220;2022-12-13T21:58:16;90.00;;;42.60;;
57291;SDS011;43144;50.972;18.220;2022-12-13T22:08:05;131.10;;;70.30;;
57291;SDS011;43144;50.972;18.220;2022-12-13T22:17:54;71.20;;;41.10;;
57291;SDS011;43144;50.972;18.220;2022-12-13T22:27:43;118.40;;;62.30;;
57291;SDS011;43144;50.972;18.220;2022-12-13T22:37:34;134.30;;;67.80;;
57291;SDS011;43144;50.972;18.220;2022-12-13T22:47:24;136.20;;;70.30;;
57291;SDS011;43144;50.972;18.220;2022-12-13T22:57:13;125.50;;;70.50;;
57291;SDS011;43144;50.972;18.220;2022-12-13T23:07:02;124.40;;;69.10;;
57291;SDS011;43144;50.972;18.220;2022-12-13T23:16:52;121.40;;;64.00;;
57291;SDS011;43144;50.972;18.220;2022-12-13T23:26:42;137.80;;;66.00;;
57291;SDS011;43144;50.972;18.220;2022-12-13T23:36:31;134.20;;;68.60;;
57291;SDS011;43144;50.972;18.220;2022-12-13T23:46:22;141.10;;;71.70;;
